Time;durP1;ratioP1;P1;durP2;ratioP2;P2;SDS_P1;SDS_P2;PMS_P1;PMS_P2;Temp;Humidity;BMP_temperature;BMP_pressure;BME280_temperature;BME280_humidity;BME280_pressure;Samples;Min_cycle;Max_cycle;Signal;HPM_P1;HPM_P2
2023/04/18 00:00:45;;;;;;;16.55;11.15;;;7.10;99.90;;;;;;5091701;28;20461;-63
2023/04/18 00:03:14;;;;;;;15.40;10.70;;;6.90;99.90;;;;;;5074095;28;20110;-62
2023/04/18 00:05:42;;;;;;;16.70;11.15;;;7.00;99.90;;;;;;5092087;28;20423;-62
2023/04/18 00:08:10;;;;;;;14.48;10.48;;;7.00;99.90;;;;;;5091949;28;20066;-61
2023/04/18 00:10:37;;;;;;;13.18;9.75;;;7.00;99.90;;;;;;5092008;28;20056;-61
2023/04/18 00:13:04;;;;;;;18.65;9.60;;;7.00;99.90;;;;;;5092014;28;20044;-63
2023/04/18 00:15:33;;;;;;;13.70;9.70;;;6.90;99.90;;;;;;5073438;28;20056;-61
2023/04/18 00:18:04;;;;;;;15.75;9.77;;;7.00;99.90;;;;;;5074318;28;20109;-61
2023/04/18 00:20:31;;;;;;;16.35;10.27;;;6.90;99.90;;;;;;5072477;28;20432;-61
2023/04/18 00:22:59;;;;;;;14.15;9.77;;;6.90;99.90;;;;;;5073228;28;20081;-62
2023/04/18 00:25:27;;;;;;;14.93;10.80;;;6.80;99.90;;;;;;5074145;28;20048;-61
2023/04/18 00:27:54;;;;;;;13.73;9.75;;;6.80;99.90;;;;;;5089879;28;20093;-61
2023/04/18 00:30:21;;;;;;;17.05;10.60;;;6.70;99.90;;;;;;5091554;28;20044;-61
2023/04/18 00:32:48;;;;;;;16.70;10.70;;;6.70;99.90;;;;;;5093851;28;20055;-61
2023/04/18 00:35:15;;;;;;;18.92;11.02;;;6.70;99.90;;;;;;5095829;28;20484;-61
2023/04/18 00:37:42;;;;;;;16.85;11.10;;;6.70;99.90;;;;;;5077590;28;20048;-61
2023/04/18 00:40:10;;;;;;;16.35;10.75;;;6.70;99.90;;;;;;5095787;28;20052;-62
2023/04/18 00:42:38;;;;;;;20.52;11.00;;;6.70;99.90;;;;;;5077535;28;20134;-62
2023/04/18 00:45:06;;;;;;;12.18;9.88;;;6.70;99.90;;;;;;5075619;28;20450;-61
2023/04/18 00:47:33;;;;;;;14.07;9.45;;;6.70;99.90;;;;;;5077672;28;20060;-62
2023/04/18 00:49:59;;;;;;;18.58;9.23;;;6.70;99.90;;;;;;5095008;28;20051;-61
2023/04/18 00:52:27;;;;;;;14.40;9.20;;;6.70;99.90;;;;;;5077551;28;20110;-62
2023/04/18 00:54:55;;;;;;;13.77;8.38;;;6.60;99.90;;;;;;5095895;28;20101;-61
2023/04/18 00:57:22;;;;;;;13.02;9.07;;;6.60;99.90;;;;;;5094976;28;20044;-63
2023/04/18 00:59:51;;;;;;;14.68;9.77;;;6.60;99.90;;;;;;5077423;28;20056;-61
2023/04/18 01:02:18;;;;;;;14.65;9.25;;;6.60;99.90;;;;;;5075375;28;20101;-61
2023/04/18 01:04:46;;;;;;;15.70;10.65;;;6.50;99.90;;;;;;5095017;28;20416;-60
2023/04/18 01:07:12;;;;;;;14.25;8.80;;;6.50;99.90;;;;;;5095315;28;20534;-61
2023/04/18 01:09:40;;;;;;;13.40;9.43;;;6.50;99.90;;;;;;5095264;28;20044;-62
2023/04/18 01:12:07;;;;;;;17.40;9.73;;;6.50;99.90;;;;;;5076645;28;20460;-61
2023/04/18 01:14:34;;;;;;;13.35;9.35;;;6.50;99.90;;;;;;5077294;28;20048;-61
2023/04/18 01:17:02;;;;;;;15.80;9.27;;;6.50;99.90;;;;;;5077286;28;20048;-62
2023/04/18 01:19:29;;;;;;;14.80;9.18;;;6.50;99.90;;;;;;5092626;28;20044;-61
2023/04/18 01:21:56;;;;;;;14.05;9.05;;;6.40;99.90;;;;;;5077117;28;20465;-62
2023/04/18 01:24:25;;;;;;;17.17;10.10;;;6.40;99.90;;;;;;5095123;28;20561;-61
2023/04/18 01:26:52;;;;;;;13.25;9.15;;;6.40;99.90;;;;;;5076391;28;20044;-62
2023/04/18 01:29:19;;;;;;;11.75;8.68;;;6.40;99.90;;;;;;5095037;28;20055;-62
2023/04/18 01:31:46;;;;;;;11.77;8.57;;;6.40;99.90;;;;;;5092272;28;20036;-61
2023/04/18 01:34:13;;;;;;;13.50;8.45;;;6.40;99.90;;;;;;5094862;28;20491;-62
2023/04/18 01:36:41;;;;;;;13.82;10.10;;;6.40;99.90;;;;;;5092789;28;20048;-62
2023/04/18 01:39:08;;;;;;;13.10;9.00;;;6.30;99.90;;;;;;5094134;28;20048;-61
2023/04/18 01:41:36;;;;;;;13.95;8.85;;;6.40;99.90;;;;;;5076584;28;20051;-61
2023/04/18 01:44:03;;;;;;;13.27;8.82;;;6.90;99.90;;;;;;5094130;28;20446;-61
2023/04/18 01:46:31;;;;;;;13.32;8.23;;;6.40;99.90;;;;;;5094335;28;20052;-61
2023/04/18 01:48:59;;;;;;;15.35;8.60;;;6.40;99.90;;;;;;5094692;28;20134;-61
2023/04/18 01:51:27;;;;;;;13.48;8.75;;;6.40;99.90;;;;;;5075216;28;20044;-62
2023/04/18 01:53:54;;;;;;;14.77;8.85;;;6.30;99.90;;;;;;5094024;28;20062;-62
2023/04/18 01:56:21;;;;;;;13.50;8.80;;;6.30;99.90;;;;;;5076743;28;20055;-63
2023/04/18 01:58:49;;;;;;;14.38;8.23;;;6.20;99.90;;;;;;5094333;28;20465;-61
2023/04/18 02:01:16;;;;;;;11.40;7.88;;;6.20;99.90;;;;;;5093927;28;20097;-61
2023/04/18 02:03:43;;;;;;;12.75;7.95;;;6.20;99.90;;;;;;5059048;28;20496;-60
2023/04/18 02:06:10;;;;;;;11.60;7.07;;;6.20;99.90;;;;;;5074051;28;20048;-61
2023/04/18 02:08:36;;;;;;;12.23;8.30;;;6.10;99.90;;;;;;5071049;28;20074;-62
2023/04/18 02:11:03;;;;;;;11.70;7.97;;;6.10;99.90;;;;;;5056279;28;20063;-61
2023/04/18 02:13:30;;;;;;;11.23;7.78;;;6.10;99.90;;;;;;5073905;28;20084;-61
2023/04/18 02:15:59;;;;;;;12.75;7.82;;;6.10;99.90;;;;;;5055585;28;20127;-61
2023/04/18 02:18:26;;;;;;;9.13;6.70;;;6.10;99.90;;;;;;5071747;28;20090;-61
2023/04/18 02:20:53;;;;;;;10.98;7.80;;;6.10;99.90;;;;;;5072908;28;20102;-61
2023/04/18 02:23:20;;;;;;;10.25;7.63;;;6.20;99.90;;;;;;5053719;28;20045;-61
2023/04/18 02:25:47;;;;;;;12.98;7.93;;;6.20;99.90;;;;;;5055874;28;20098;-63
2023/04/18 02:28:14;;;;;;;9.18;7.38;;;6.20;99.90;;;;;;5073186;28;20059;-62
2023/04/18 02:30:41;;;;;;;11.27;7.95;;;6.30;99.90;;;;;;5073600;28;20048;-62
2023/04/18 02:33:09;;;;;;;10.55;6.80;;;6.30;99.90;;;;;;5071177;28;20044;-61
2023/04/18 02:35:37;;;;;;;9.82;6.50;;;6.30;99.90;;;;;;5072699;28;20044;-62
2023/04/18 02:38:04;;;;;;;9.25;6.90;;;6.40;99.90;;;;;;5073601;28;20051;-62
2023/04/18 02:40:31;;;;;;;9.00;6.30;;;6.40;99.90;;;;;;5055506;28;20535;-61
2023/04/18 02:42:58;;;;;;;8.93;6.22;;;6.50;99.90;;;;;;5073030;28;20442;-61
2023/04/18 02:45:25;;;;;;;10.30;6.28;;;6.50;99.90;;;;;;5055284;28;20110;-62
2023/04/18 02:47:52;;;;;;;9.38;6.32;;;6.50;99.90;;;;;;5055652;28;20052;-61
2023/04/18 02:50:20;;;;;;;9.45;6.03;;;6.60;99.90;;;;;;5054512;28;20105;-62
2023/04/18 02:52:47;;;;;;;12.52;6.95;;;6.60;99.90;;;;;;5073047;28;20488;-61
2023/04/18 02:55:14;;;;;;;10.68;6.82;;;6.70;99.90;;;;;;5054358;28;20123;-60
2023/04/18 02:57:41;;;;;;;9.02;6.28;;;6.70;99.90;;;;;;5072757;28;20056;-60
2023/04/18 03:00:09;;;;;;;8.65;6.57;;;6.70;99.90;;;;;;5073032;28;20056;-62
2023/04/18 03:02:36;;;;;;;10.63;6.28;;;6.70;99.90;;;;;;5062515;28;20499;-61
2023/04/18 03:05:03;;;;;;;9.10;6.47;;;6.70;99.90;;;;;;5074498;28;20047;-61
2023/04/18 03:07:31;;;;;;;7.85;5.88;;;6.70;99.90;;;;;;5093252;28;20109;-61
2023/04/18 03:09:58;;;;;;;11.30;6.00;;;6.70;99.90;;;;;;5093148;28;20044;-61
2023/04/18 03:12:25;;;;;;;8.45;6.45;;;6.80;99.90;;;;;;5074041;28;20135;-61
2023/04/18 03:14:52;;;;;;;9.40;6.55;;;6.80;99.90;;;;;;5093074;28;20051;-61
2023/04/18 03:17:19;;;;;;;9.60;6.35;;;6.70;99.90;;;;;;5074068;28;20048;-61
2023/04/18 03:19:46;;;;;;;10.98;6.05;;;6.80;99.90;;;;;;5074883;28;20468;-60
2023/04/18 03:22:13;;;;;;;11.40;7.28;;;6.80;99.90;;;;;;5074658;28;20056;-60
2023/04/18 03:24:42;;;;;;;10.30;6.40;;;6.80;99.90;;;;;;5092085;28;20733;-61
2023/04/18 03:27:09;;;;;;;8.88;6.57;;;6.80;99.90;;;;;;5074578;28;20051;-61
2023/04/18 03:29:36;;;;;;;9.57;6.22;;;6.80;99.90;;;;;;5074614;28;20564;-60
2023/04/18 03:32:02;;;;;;;8.18;5.80;;;6.80;99.90;;;;;;5092028;28;20047;-60
2023/04/18 03:34:29;;;;;;;8.43;6.00;;;6.80;99.90;;;;;;5074355;28;20048;-61
2023/04/18 03:36:56;;;;;;;9.52;5.97;;;6.80;99.90;;;;;;5092764;28;20143;-61
2023/04/18 03:39:23;;;;;;;10.05;6.25;;;6.80;99.90;;;;;;5073989;28;20055;-61
2023/04/18 03:41:52;;;;;;;9.55;6.07;;;6.80;99.90;;;;;;5092609;28;20047;-61
2023/04/18 03:44:18;;;;;;;10.55;6.32;;;6.80;99.90;;;;;;5074049;28;20127;-61
2023/04/18 03:46:45;;;;;;;11.48;5.97;;;6.80;99.90;;;;;;5073486;28;20044;-61
2023/04/18 03:49:12;;;;;;;9.60;6.50;;;6.80;99.90;;;;;;5064034;28;20102;-60
2023/04/18 03:51:46;;;;;;;9.98;5.95;;;6.70;99.90;;;;;;5086911;28;20048;-61
2023/04/18 03:54:13;;;;;;;9.05;6.38;;;6.80;99.90;;;;;;5069186;28;20043;-61
2023/04/18 03:56:40;;;;;;;9.38;6.00;;;6.80;99.90;;;;;;5072573;28;20052;-61
2023/04/18 03:59:08;;;;;;;8.70;6.60;;;6.80;99.90;;;;;;5070895;28;20083;-62
2023/04/18 04:01:35;;;;;;;7.63;5.90;;;6.80;99.90;;;;;;5090524;28;20519;-61
2023/04/18 04:04:02;;;;;;;10.43;5.90;;;6.80;99.90;;;;;;5089267;28;20063;-60
2023/04/18 04:06:30;;;;;;;8.45;5.85;;;6.80;99.90;;;;;;5086109;28;20427;-62
2023/04/18 04:08:57;;;;;;;9.00;5.63;;;6.80;99.90;;;;;;5087507;28;20071;-61
2023/04/18 04:11:24;;;;;;;10.07;6.05;;;6.80;99.90;;;;;;5087693;28;20040;-62
2023/04/18 04:13:51;;;;;;;11.85;6.93;;;6.80;99.90;;;;;;5088118;28;20063;-61
2023/04/18 04:16:19;;;;;;;9.13;5.75;;;7.10;99.90;;;;;;5087793;28;20048;-61
2023/04/18 04:18:46;;;;;;;9.23;6.63;;;7.50;99.90;;;;;;5087316;28;20044;-61
2023/04/18 04:21:13;;;;;;;8.98;6.78;;;7.40;99.90;;;;;;5088553;28;20048;-61
2023/04/18 04:23:41;;;;;;;11.07;7.57;;;7.50;99.90;;;;;;5091007;28;20073;-62
2023/04/18 04:26:08;;;;;;;11.00;6.82;;;7.50;99.90;;;;;;5088024;28;20044;-62
2023/04/18 04:28:35;;;;;;;14.45;6.55;;;7.90;99.90;;;;;;5089098;28;20094;-62
2023/04/18 04:31:05;;;;;;;9.80;6.70;;;7.90;99.90;;;;;;5066401;28;20060;-62
2023/04/18 04:33:34;;;;;;;8.23;6.32;;;7.80;99.90;;;;;;5071073;28;20078;-61
2023/04/18 04:36:01;;;;;;;8.25;6.60;;;8.20;99.90;;;;;;5085122;28;20432;-61
2023/04/18 04:38:29;;;;;;;10.18;6.38;;;8.00;99.90;;;;;;5087041;28;20044;-61
2023/04/18 04:40:57;;;;;;;9.52;6.40;;;7.90;99.90;;;;;;5089287;28;20055;-61
2023/04/18 04:43:24;;;;;;;10.55;6.30;;;8.20;99.90;;;;;;5088985;28;20399;-61
2023/04/18 04:45:51;;;;;;;10.75;6.25;;;7.90;99.90;;;;;;5070225;28;20121;-61
2023/04/18 04:48:20;;;;;;;11.05;6.18;;;7.70;99.90;;;;;;5089888;28;20088;-61
2023/04/18 04:50:53;;;;;;;9.13;7.20;;;7.60;99.90;;;;;;5067853;28;21359;-61
2023/04/18 04:53:20;;;;;;;10.10;6.90;;;7.40;99.90;;;;;;5067815;28;20128;-62
2023/04/18 04:55:48;;;;;;;11.93;7.25;;;7.40;99.90;;;;;;5068431;28;20044;-62
2023/04/18 04:58:15;;;;;;;10.07;6.72;;;7.30;99.90;;;;;;5088190;28;20113;-62
2023/04/18 05:00:41;;;;;;;10.20;8.15;;;7.30;99.90;;;;;;5073271;28;20089;-61
2023/04/18 05:03:09;;;;;;;8.95;6.80;;;7.30;99.90;;;;;;5088060;28;20078;-61
2023/04/18 05:05:36;;;;;;;9.40;7.05;;;7.30;99.90;;;;;;5072442;28;20114;-62
2023/04/18 05:08:05;;;;;;;10.73;7.38;;;7.30;99.90;;;;;;5070657;28;20044;-62
2023/04/18 05:10:31;;;;;;;11.20;7.38;;;7.30;99.90;;;;;;5090295;28;20056;-62
2023/04/18 05:12:58;;;;;;;11.38;7.57;;;7.30;99.90;;;;;;5087848;28;20126;-61
2023/04/18 05:15:25;;;;;;;12.15;7.57;;;7.30;99.90;;;;;;5090439;28;20496;-61
2023/04/18 05:17:52;;;;;;;11.73;7.40;;;7.30;99.90;;;;;;5087258;28;20526;-60
2023/04/18 05:20:19;;;;;;;9.43;7.28;;;7.30;99.90;;;;;;5094431;28;20406;-62
2023/04/18 05:22:46;;;;;;;13.23;8.45;;;7.30;99.90;;;;;;5092472;28;20044;-61
2023/04/18 05:25:14;;;;;;;13.27;8.00;;;7.40;99.90;;;;;;5075707;28;20121;-61
2023/04/18 05:27:43;;;;;;;11.10;7.63;;;7.30;99.90;;;;;;5075174;28;20402;-61
2023/04/18 05:30:11;;;;;;;11.57;8.55;;;7.40;99.90;;;;;;5091743;28;20509;-61
2023/04/18 05:32:38;;;;;;;11.60;8.30;;;7.40;99.90;;;;;;5092297;28;20127;-62
2023/04/18 05:35:06;;;;;;;12.60;8.10;;;7.40;99.90;;;;;;5093086;28;20040;-61
2023/04/18 05:37:33;;;;;;;13.80;8.70;;;7.40;99.90;;;;;;5094179;28;20094;-62
2023/04/18 05:40:00;;;;;;;11.32;7.72;;;7.50;99.90;;;;;;5073553;28;20447;-62
2023/04/18 05:42:28;;;;;;;11.63;7.63;;;7.50;99.90;;;;;;5075385;28;20052;-61
2023/04/18 05:44:55;;;;;;;11.25;7.22;;;7.60;99.90;;;;;;5092470;28;20094;-61
2023/04/18 05:47:22;;;;;;;11.50;7.93;;;7.60;99.90;;;;;;5076547;28;20052;-61
2023/04/18 05:49:49;;;;;;;11.82;8.68;;;7.60;99.90;;;;;;5092963;28;20488;-61
2023/04/18 05:52:16;;;;;;;11.05;7.78;;;7.70;99.90;;;;;;5092870;28;20864;-62
2023/04/18 05:54:43;;;;;;;12.75;7.95;;;7.70;99.90;;;;;;5093613;28;20568;-61
2023/04/18 05:57:10;;;;;;;12.90;7.43;;;7.80;99.90;;;;;;5091722;28;20381;-62
2023/04/18 05:59:38;;;;;;;12.02;7.15;;;7.80;99.90;;;;;;5074312;28;20450;-62
2023/04/18 06:02:08;;;;;;;14.48;7.60;;;7.90;99.90;;;;;;5093513;28;20081;-62
2023/04/18 06:04:35;;;;;;;11.60;8.35;;;8.10;99.90;;;;;;5093813;28;20066;-62
2023/04/18 06:07:02;;;;;;;13.10;7.10;;;8.20;99.90;;;;;;5093280;28;20052;-63
2023/04/18 06:09:30;;;;;;;12.48;7.45;;;8.50;99.90;;;;;;5093449;28;20052;-62
2023/04/18 06:11:57;;;;;;;11.48;7.75;;;8.70;99.90;;;;;;5093481;28;20044;-63
2023/04/18 06:14:24;;;;;;;11.25;7.15;;;9.00;99.90;;;;;;5092263;28;20048;-61
2023/04/18 06:16:53;;;;;;;14.05;8.05;;;9.10;99.90;;;;;;5092856;28;20403;-62
2023/04/18 06:19:19;;;;;;;13.48;7.93;;;9.00;99.90;;;;;;5075703;28;20048;-62
2023/04/18 06:21:46;;;;;;;11.50;7.35;;;9.10;99.90;;;;;;5075033;28;20040;-61
2023/04/18 06:24:13;;;;;;;11.30;8.02;;;9.30;99.90;;;;;;5093814;28;20446;-62
2023/04/18 06:26:40;;;;;;;11.00;7.40;;;9.50;99.90;;;;;;5093736;28;20101;-63
2023/04/18 06:29:07;;;;;;;12.35;7.78;;;10.00;99.90;;;;;;5074727;28;20442;-62
2023/04/18 06:31:34;;;;;;;17.52;7.90;;;10.50;99.90;;;;;;5075427;28;20130;-61
2023/04/18 06:34:02;;;;;;;11.65;7.38;;;11.10;99.90;;;;;;5075372;28;20055;-61
2023/04/18 06:36:30;;;;;;;12.32;7.63;;;11.40;99.90;;;;;;5067466;28;20423;-62
2023/04/18 06:38:57;;;;;;;8.80;7.22;;;11.70;99.90;;;;;;5092560;28;20055;-61
2023/04/18 06:41:24;;;;;;;9.77;6.78;;;12.00;99.90;;;;;;5074132;28;20104;-62
2023/04/18 06:43:50;;;;;;;10.88;6.88;;;12.10;99.90;;;;;;5093013;28;20113;-61
2023/04/18 06:46:17;;;;;;;11.57;7.13;;;12.50;99.90;;;;;;5075153;28;20102;-62
2023/04/18 06:48:44;;;;;;;12.95;7.30;;;12.30;99.90;;;;;;5074977;28;20143;-62
2023/04/18 06:51:12;;;;;;;9.75;6.45;;;12.60;99.90;;;;;;5093233;28;20153;-62
2023/04/18 06:53:39;;;;;;;10.07;6.93;;;13.20;99.90;;;;;;5074862;28;20054;-62
2023/04/18 06:56:07;;;;;;;14.05;7.07;;;13.30;99.90;;;;;;5092410;28;20044;-61
2023/04/18 06:58:33;;;;;;;11.60;6.53;;;13.50;99.90;;;;;;5073240;28;20093;-61
2023/04/18 07:01:00;;;;;;;9.02;6.38;;;13.70;99.90;;;;;;5093059;28;20101;-62
2023/04/18 07:03:27;;;;;;;10.35;6.30;;;14.10;99.40;;;;;;5090214;28;20052;-62
2023/04/18 07:05:55;;;;;;;17.17;7.65;;;14.20;98.20;;;;;;5074853;28;20565;-62
2023/04/18 07:08:23;;;;;;;10.13;6.82;;;14.20;97.50;;;;;;5092991;28;20044;-61
2023/04/18 07:10:50;;;;;;;9.65;6.72;;;14.30;98.30;;;;;;5092199;28;20040;-62
2023/04/18 07:13:17;;;;;;;8.70;6.88;;;14.60;97.50;;;;;;5075029;28;20093;-61
2023/04/18 07:15:44;;;;;;;9.02;5.82;;;14.70;96.40;;;;;;5092757;28;20040;-62
2023/04/18 07:18:11;;;;;;;7.63;6.28;;;14.80;96.10;;;;;;5074267;28;20138;-62
2023/04/18 07:20:37;;;;;;;12.18;6.57;;;14.80;95.80;;;;;;5074572;28;20446;-61
2023/04/18 07:23:05;;;;;;;8.70;6.47;;;15.10;95.80;;;;;;5074803;28;20416;-62
2023/04/18 07:25:33;;;;;;;10.60;7.40;;;15.30;94.30;;;;;;5091977;28;20507;-62
2023/04/18 07:28:00;;;;;;;10.73;6.53;;;15.50;94.30;;;;;;5092614;28;20059;-62
2023/04/18 07:30:27;;;;;;;12.73;6.72;;;15.70;94.80;;;;;;5071849;28;20048;-61
2023/04/18 07:32:54;;;;;;;9.27;6.75;;;15.70;94.90;;;;;;5092486;28;20048;-62
2023/04/18 07:35:21;;;;;;;11.10;7.03;;;16.10;94.20;;;;;;5074295;28;20499;-62
2023/04/18 07:37:48;;;;;;;10.65;6.60;;;15.80;93.10;;;;;;5073748;28;20040;-62
2023/04/18 07:40:16;;;;;;;8.88;7.32;;;15.80;92.90;;;;;;5091875;28;20048;-61
2023/04/18 07:42:44;;;;;;;12.65;8.13;;;15.80;92.90;;;;;;5092489;28;20058;-60
2023/04/18 07:45:11;;;;;;;12.00;7.47;;;16.20;93.20;;;;;;5073631;28;20055;-62
2023/04/18 07:47:38;;;;;;;9.70;6.95;;;16.30;93.80;;;;;;5074345;28;20503;-62
2023/04/18 07:50:06;;;;;;;10.18;7.25;;;16.20;93.50;;;;;;5074012;28;20484;-62
2023/04/18 07:52:32;;;;;;;9.70;6.70;;;16.10;93.20;;;;;;5073992;28;20059;-62
2023/04/18 07:54:59;;;;;;;11.68;7.07;;;15.90;92.20;;;;;;5074208;28;20059;-62
2023/04/18 07:57:26;;;;;;;10.00;6.68;;;16.40;92.50;;;;;;5072054;28;20055;-62
2023/04/18 07:59:55;;;;;;;10.55;6.55;;;16.90;92.70;;;;;;5091399;28;20523;-62
2023/04/18 08:02:22;;;;;;;7.88;6.20;;;17.00;92.30;;;;;;5090218;28;20052;-62
2023/04/18 08:04:50;;;;;;;8.85;6.30;;;16.70;94.30;;;;;;5091837;28;20508;-62
2023/04/18 08:07:17;;;;;;;10.93;6.30;;;16.50;90.40;;;;;;5091555;28;20044;-63
2023/04/18 08:09:44;;;;;;;9.25;7.03;;;16.70;91.00;;;;;;5073891;28;20093;-62
2023/04/18 08:12:11;;;;;;;11.93;7.70;;;16.90;91.30;;;;;;5073844;28;20059;-62
2023/04/18 08:14:38;;;;;;;9.52;6.63;;;16.50;90.10;;;;;;5091409;28;20047;-63
2023/04/18 08:17:06;;;;;;;9.30;6.15;;;17.00;89.30;;;;;;5091905;28;20454;-63
2023/04/18 08:19:33;;;;;;;11.43;6.72;;;17.20;90.50;;;;;;5072119;28;20055;-62
2023/04/18 08:22:09;;;;;;;10.80;6.72;;;17.00;89.30;;;;;;5091258;28;20048;-63
2023/04/18 08:24:37;;;;;;;8.20;6.55;;;17.30;88.20;;;;;;5091913;28;20105;-63
2023/04/18 08:27:04;;;;;;;7.35;6.18;;;17.70;90.00;;;;;;5091455;28;20082;-62
2023/04/18 08:29:32;;;;;;;11.00;7.03;;;17.80;88.80;;;;;;5073937;28;20133;-62
2023/04/18 08:31:59;;;;;;;10.55;6.22;;;17.40;87.50;;;;;;5073675;28;20048;-62
2023/04/18 08:34:28;;;;;;;9.57;6.70;;;17.60;86.60;;;;;;5091338;28;20040;-62
2023/04/18 08:36:55;;;;;;;9.98;6.45;;;17.60;85.90;;;;;;5073871;28;20051;-62
2023/04/18 08:39:22;;;;;;;9.70;6.65;;;17.20;84.40;;;;;;5091760;28;20118;-62
2023/04/18 08:41:58;;;;;;;10.40;6.47;;;17.10;84.90;;;;;;5090949;28;20055;-62
2023/04/18 08:44:25;;;;;;;10.65;6.75;;;17.20;86.40;;;;;;5091620;28;20040;-62
2023/04/18 08:46:53;;;;;;;10.15;7.00;;;17.40;83.70;;;;;;5073747;28;20465;-63
2023/04/18 08:49:21;;;;;;;10.65;7.00;;;17.80;84.20;;;;;;5073234;28;20472;-62
2023/04/18 08:51:51;;;;;;;9.73;6.22;;;17.80;83.80;;;;;;5091480;28;20043;-62
2023/04/18 08:54:21;;;;;;;9.98;5.82;;;18.60;83.70;;;;;;5075176;28;20035;-63
2023/04/18 08:57:03;;;;;;;9.98;6.43;;;18.90;83.50;;;;;;5094747;28;20090;-63
2023/04/18 08:59:31;;;;;;;10.07;6.97;;;18.60;79.20;;;;;;5076205;28;20052;-63
2023/04/18 09:02:00;;;;;;;11.93;6.97;;;18.60;79.10;;;;;;5076705;28;20051;-62
2023/04/18 09:04:36;;;;;;;12.35;6.13;;;19.20;79.90;;;;;;5095273;28;20044;-62
2023/04/18 09:07:05;;;;;;;8.15;6.07;;;18.80;78.80;;;;;;5076998;28;20052;-63
2023/04/18 09:09:44;;;;;;;8.48;6.47;;;18.60;78.80;;;;;;5076516;28;20056;-62
2023/04/18 09:12:13;;;;;;;8.50;5.72;;;19.00;79.80;;;;;;5095033;28;20462;-62
2023/04/18 09:14:43;;;;;;;9.80;6.38;;;19.30;78.60;;;;;;5093465;28;20036;-63
2023/04/18 09:17:13;;;;;;;7.63;5.93;;;18.20;77.40;;;;;;5094504;28;20048;-63
2023/04/18 09:19:47;;;;;;;9.60;6.50;;;18.00;78.50;;;;;;5095170;28;20101;-63
2023/04/18 09:22:16;;;;;;;8.70;6.18;;;18.30;78.40;;;;;;5093886;28;20048;-61
2023/04/18 09:24:56;;;;;;;10.50;6.50;;;18.50;77.40;;;;;;5074715;28;20052;-62
2023/04/18 09:27:23;;;;;;;11.70;6.57;;;18.50;78.40;;;;;;5076869;28;20297;-62
2023/04/18 09:29:53;;;;;;;8.15;6.25;;;19.00;77.20;;;;;;5072021;28;20040;-61
2023/04/18 09:32:23;;;;;;;10.85;6.07;;;19.20;77.30;;;;;;5093694;28;20083;-62
2023/04/18 09:34:53;;;;;;;10.60;5.93;;;18.50;77.10;;;;;;5076440;28;20089;-63
2023/04/18 09:37:21;;;;;;;8.13;6.13;;;18.80;77.90;;;;;;5093799;28;20403;-61
2023/04/18 09:39:49;;;;;;;10.48;5.45;;;18.70;78.70;;;;;;5094420;28;20124;-63
2023/04/18 09:42:17;;;;;;;9.50;6.28;;;18.50;78.10;;;;;;5093465;28;20043;-62
2023/04/18 09:45:03;;;;;;;7.10;5.47;;;19.10;80.00;;;;;;5074852;28;20048;-62
2023/04/18 09:47:31;;;;;;;6.50;5.80;;;19.10;79.10;;;;;;5074681;28;20491;-62
2023/04/18 09:49:58;;;;;;;12.60;6.10;;;18.90;79.10;;;;;;5093894;28;20044;-62
2023/04/18 09:52:29;;;;;;;10.38;6.05;;;18.70;77.80;;;;;;5073688;28;20117;-63
2023/04/18 09:54:58;;;;;;;6.60;5.57;;;18.90;79.90;;;;;;5094093;28;20036;-62
2023/04/18 09:57:28;;;;;;;6.80;5.53;;;19.00;79.50;;;;;;5093391;28;20044;-63
2023/04/18 09:59:59;;;;;;;;;;;19.10;77.70;;;;;;5075680;28;20567;-63
2023/04/18 10:02:32;;;;;;;7.60;5.82;;;19.20;77.10;;;;;;5091963;28;19920;-62
2023/04/18 10:05:00;;;;;;;6.35;5.43;;;19.30;78.50;;;;;;5093439;28;20055;-63
2023/04/18 10:07:28;;;;;;;8.02;5.07;;;19.10;80.00;;;;;;5093205;28;20040;-63
2023/04/18 10:09:55;;;;;;;8.00;6.10;;;19.30;79.00;;;;;;5093675;28;20044;-62
2023/04/18 10:12:23;;;;;;;7.45;5.43;;;19.10;79.30;;;;;;5074935;28;20105;-62
2023/04/18 10:14:50;;;;;;;6.63;5.00;;;19.60;80.80;;;;;;5074611;28;20447;-62
2023/04/18 10:17:19;;;;;;;5.15;4.10;;;19.50;78.60;;;;;;5074848;28;20048;-62
2023/04/18 10:19:46;;;;;;;7.85;5.68;;;19.40;79.50;;;;;;5074319;28;20044;-62
2023/04/18 10:22:13;;;;;;;7.30;3.95;;;19.40;80.60;;;;;;5093268;28;20105;-63
2023/04/18 10:24:55;;;;;;;7.97;5.15;;;19.60;79.80;;;;;;5075256;28;20066;-63
2023/04/18 10:27:57;;;;;;;6.13;4.53;;;19.70;80.30;;;;;;5092902;28;20051;-63
2023/04/18 10:30:50;;;;;;;6.60;4.38;;;19.50;79.80;;;;;;5092732;28;20099;-63
2023/04/18 10:33:22;;;;;;;7.80;4.47;;;18.70;81.00;;;;;;5092772;28;20462;-63
2023/04/18 10:35:56;;;;;;;6.80;4.93;;;18.90;81.00;;;;;;5092280;28;20127;-62
2023/04/18 10:38:24;;;;;;;5.72;4.10;;;19.10;81.10;;;;;;5092278;28;20040;-62
2023/04/18 10:40:52;;;;;;;6.97;4.15;;;19.20;80.90;;;;;;5074666;28;20479;-63
2023/04/18 10:43:19;;;;;;;6.05;4.43;;;19.70;81.20;;;;;;5092938;28;20056;-63
2023/04/18 10:46:09;;;;;;;7.70;4.60;;;19.70;79.40;;;;;;5075214;28;20052;-63
2023/04/18 10:48:37;;;;;;;;;;;20.00;80.90;;;;;;5073091;28;20131;-63
2023/04/18 10:51:19;;;;;;;7.50;4.68;;;20.30;80.70;;;;;;5075093;28;19924;-62
2023/04/18 10:53:53;;;;;;;5.30;4.18;;;19.70;80.30;;;;;;5066750;28;20048;-63
2023/04/18 10:56:22;;;;;;;5.05;3.90;;;20.20;79.20;;;;;;5087477;28;20055;-63
2023/04/18 10:58:51;;;;;;;5.13;4.15;;;19.90;80.30;;;;;;5090212;28;20100;-63
2023/04/18 11:01:26;;;;;;;7.30;3.83;;;20.10;80.20;;;;;;5069441;28;20055;-63
2023/04/18 11:03:54;;;;;;;6.55;4.55;;;20.30;80.20;;;;;;5053185;28;20052;-63
2023/04/18 11:06:22;;;;;;;7.47;4.38;;;20.90;80.40;;;;;;5070250;28;20067;-62
2023/04/18 11:08:49;;;;;;;5.82;3.80;;;20.50;80.70;;;;;;5069015;28;20458;-63
2023/04/18 11:11:17;;;;;;;7.47;4.55;;;20.80;79.70;;;;;;5069783;28;20492;-63
2023/04/18 11:13:57;;;;;;;6.28;4.35;;;20.70;79.50;;;;;;5070940;28;20055;-63
2023/04/18 11:16:28;;;;;;;5.95;4.70;;;20.60;80.10;;;;;;5049379;28;20067;-63
2023/04/18 11:18:55;;;;;;;6.65;4.28;;;21.40;80.40;;;;;;5067956;28;20102;-63
2023/04/18 11:21:24;;;;;;;4.68;3.95;;;21.20;79.80;;;;;;5050700;28;21311;-63
2023/04/18 11:23:51;;;;;;;7.17;4.40;;;20.80;79.20;;;;;;5028393;28;20407;-63
2023/04/18 11:26:20;;;;;;;6.60;4.38;;;20.80;79.20;;;;;;5071405;28;20348;-63
2023/04/18 11:28:51;;;;;;;6.40;4.57;;;20.30;79.90;;;;;;5071975;28;20052;-63
2023/04/18 11:31:22;;;;;;;7.55;4.85;;;20.70;80.80;;;;;;5052063;28;20127;-63
2023/04/18 11:33:49;;;;;;;9.23;4.40;;;20.70;79.60;;;;;;5052625;28;20139;-62
2023/04/18 11:36:16;;;;;;;6.80;3.80;;;20.60;80.10;;;;;;5071502;28;20492;-62
2023/04/18 11:38:43;;;;;;;5.13;4.13;;;20.20;79.60;;;;;;5051577;28;20105;-63
2023/04/18 11:41:14;;;;;;;6.85;4.60;;;20.30;80.60;;;;;;5072017;28;20041;-63
2023/04/18 11:43:43;;;;;;;5.97;3.67;;;20.40;79.80;;;;;;5071711;28;20410;-61
2023/04/18 11:46:11;;;;;;;4.78;2.90;;;20.40;79.20;;;;;;5053844;28;20127;-62
2023/04/18 11:48:41;;;;;;;6.05;3.15;;;20.60;79.30;;;;;;5072137;28;20044;-63
2023/04/18 11:51:09;;;;;;;;;;;20.20;79.00;;;;;;5051817;28;20581;-63
2023/04/18 11:53:38;;;;;;;6.32;3.85;;;19.50;80.10;;;;;;5068864;28;20521;-63
2023/04/18 11:56:06;;;;;;;4.43;3.45;;;19.60;81.20;;;;;;5067914;28;20586;-62
2023/04/18 11:58:34;;;;;;;7.32;4.00;;;20.00;80.90;;;;;;5053270;28;20059;-64
2023/04/18 12:01:14;;;;;;;6.70;3.38;;;19.80;80.60;;;;;;5054085;28;20048;-62
2023/04/18 12:03:44;;;;;;;4.43;3.50;;;20.20;83.10;;;;;;5067627;28;20058;-62
2023/04/18 12:06:11;;;;;;;5.93;3.43;;;20.50;78.60;;;;;;5091201;28;20480;-62
2023/04/18 12:08:37;;;;;;;4.40;3.13;;;20.20;78.60;;;;;;5086497;28;20290;-62
2023/04/18 12:11:04;;;;;;;5.25;3.20;;;20.30;79.10;;;;;;5091798;28;20044;-62
2023/04/18 12:13:32;;;;;;;5.72;2.80;;;20.30;79.50;;;;;;5088363;28;20047;-62
2023/04/18 12:16:02;;;;;;;4.07;3.10;;;20.60;79.50;;;;;;5089951;28;20091;-62
2023/04/18 12:18:30;;;;;;;6.05;3.25;;;21.10;81.70;;;;;;5069925;28;20063;-62
2023/04/18 12:21:00;;;;;;;3.65;2.65;;;21.50;79.70;;;;;;5070201;28;20044;-62
2023/04/18 12:23:32;;;;;;;3.70;2.45;;;21.50;78.20;;;;;;5091810;28;20044;-63
2023/04/18 12:26:00;;;;;;;3.67;2.60;;;21.10;78.30;;;;;;5072052;28;20652;-62
2023/04/18 12:28:27;;;;;;;3.25;2.67;;;21.10;79.10;;;;;;5077644;28;20052;-62
2023/04/18 12:30:54;;;;;;;6.05;2.55;;;20.90;78.10;;;;;;5095718;28;20531;-62
2023/04/18 12:33:21;;;;;;;4.45;2.47;;;21.20;77.40;;;;;;5077485;28;20446;-62
2023/04/18 12:35:48;;;;;;;5.28;2.38;;;21.00;78.10;;;;;;5077696;28;20089;-63
2023/04/18 12:38:20;;;;;;;4.35;2.78;;;21.50;78.50;;;;;;5077599;28;20052;-63
2023/04/18 12:40:48;;;;;;;5.10;2.97;;;21.50;77.60;;;;;;5076914;28;20091;-63
2023/04/18 12:43:15;;;;;;;4.40;2.50;;;21.60;77.90;;;;;;5095864;28;20122;-63
2023/04/18 12:45:42;;;;;;;4.60;3.05;;;22.00;77.60;;;;;;5095732;28;20059;-63
2023/04/18 12:48:09;;;;;;;6.50;3.08;;;21.90;76.60;;;;;;5076837;28;20059;-63
2023/04/18 12:50:36;;;;;;;3.88;2.50;;;21.50;78.40;;;;;;5095590;28;20180;-63
2023/04/18 12:53:04;;;;;;;3.55;2.75;;;20.70;77.70;;;;;;5095779;28;20048;-62